Time;durP1;ratioP1;P1;durP2;ratioP2;P2;SDS_P1;SDS_P2;PMS_P1;PMS_P2;Temp;Humidity;BMP_temperature;BMP_pressure;BME280_temperature;BME280_humidity;BME280_pressure;Samples;Min_cycle;Max_cycle;Signal;HPM_P1;HPM_P2
2022/08/23 00:01:54;;;;;;;6.50;1.27;;;22.70;76.90;;;;;;5149577;27;45251;-73
2022/08/23 00:04:23;;;;;;;5.28;1.85;;;22.70;77.20;;;;;;5163170;27;45386;-73
2022/08/23 00:06:53;;;;;;;6.00;1.80;;;22.70;77.40;;;;;;5142237;27;47268;-72
2022/08/23 00:09:21;;;;;;;4.15;1.65;;;22.60;77.70;;;;;;5142950;27;45474;-73
2022/08/23 00:11:51;;;;;;;1.80;1.40;;;22.60;78.20;;;;;;5134699;27;45439;-72
2022/08/23 00:14:22;;;;;;;3.13;1.65;;;22.50;78.00;;;;;;5136573;27;45273;-72
2022/08/23 00:16:50;;;;;;;6.78;2.05;;;22.40;78.90;;;;;;5153487;27;46400;-73
2022/08/23 00:19:19;;;;;;;5.32;1.75;;;22.40;79.00;;;;;;5148762;27;46027;-74
2022/08/23 00:21:46;;;;;;;3.88;1.65;;;22.40;79.70;;;;;;5151094;27;45408;-72
2022/08/23 00:24:16;;;;;;;7.18;2.00;;;22.40;79.80;;;;;;5145208;27;45636;-72
2022/08/23 00:26:55;;;;;;;4.03;1.52;;;22.40;79.40;;;;;;5154742;27;46591;-73
2022/08/23 00:29:24;;;;;;;4.88;1.70;;;22.40;79.80;;;;;;5146110;27;45470;-72
2022/08/23 00:31:52;;;;;;;5.30;2.00;;;22.40;80.30;;;;;;5160078;27;45346;-72
2022/08/23 00:34:20;;;;;;;5.05;1.80;;;22.40;79.40;;;;;;5139829;27;45459;-72
2022/08/23 00:36:48;;;;;;;4.63;2.08;;;22.40;79.10;;;;;;5155356;27;46839;-72
2022/08/23 00:39:16;;;;;;;7.28;1.60;;;22.40;79.20;;;;;;5156168;27;45456;-72
2022/08/23 00:41:44;;;;;;;8.18;1.75;;;22.40;79.20;;;;;;5154085;27;45488;-73
2022/08/23 00:49:54;;;;;;;4.25;1.73;;;22.30;80.20;;;;;;5159080;27;45269;-72
2022/08/23 00:52:28;;;;;;;5.85;1.80;;;22.20;80.20;;;;;;5160237;27;45483;-72
2022/08/23 00:54:56;;;;;;;7.28;1.90;;;22.10;80.10;;;;;;5153992;27;45349;-73
2022/08/23 00:57:24;;;;;;;6.55;1.75;;;22.10;80.10;;;;;;5154848;27;45459;-72
2022/08/23 00:59:50;;;;;;;3.85;1.58;;;22.10;80.30;;;;;;5156444;27;45536;-72
2022/08/23 01:02:18;;;;;;;5.05;1.90;;;22.10;80.60;;;;;;5147975;27;45447;-72
2022/08/23 01:04:49;;;;;;;3.70;1.90;;;22.10;80.70;;;;;;5146357;27;45316;-72
2022/08/23 01:07:28;;;;;;;7.35;2.03;;;22.20;80.10;;;;;;5138548;27;47341;-72
2022/08/23 01:10:02;;;;;;;6.07;1.85;;;22.10;80.50;;;;;;5138326;27;45511;-72
2022/08/23 01:12:34;;;;;;;8.20;2.20;;;22.20;80.20;;;;;;5140308;27;45365;-72
2022/08/23 01:15:05;;;;;;;2.75;1.50;;;22.10;80.10;;;;;;5144318;27;45498;-73
2022/08/23 01:17:36;;;;;;;5.28;1.90;;;22.10;80.10;;;;;;5154938;27;45581;-72
2022/08/23 01:20:06;;;;;;;6.07;1.70;;;22.10;80.50;;;;;;5150746;27;45410;-72
2022/08/23 01:22:38;;;;;;;5.65;1.90;;;22.00;80.30;;;;;;5145807;27;45428;-73
2022/08/23 01:25:08;;;;;;;14.48;2.28;;;22.00;80.00;;;;;;5153824;27;45353;-72
2022/08/23 01:27:35;;;;;;;7.72;1.98;;;22.10;80.40;;;;;;5143849;27;46353;-73
2022/08/23 01:30:03;;;;;;;4.38;1.73;;;22.10;80.10;;;;;;5146637;27;45349;-72
2022/08/23 01:32:31;;;;;;;4.10;1.80;;;22.10;80.10;;;;;;5137651;27;45307;-72
2022/08/23 01:34:58;;;;;;;3.13;1.70;;;22.00;80.60;;;;;;5135329;27;45431;-72
2022/08/23 01:37:25;;;;;;;3.28;1.73;;;22.00;81.00;;;;;;5148569;27;46362;-73
2022/08/23 01:39:54;;;;;;;3.38;1.70;;;22.00;81.40;;;;;;5148035;27;45840;-73
2022/08/23 01:42:23;;;;;;;5.22;2.00;;;22.00;81.10;;;;;;5157490;27;45409;-73
2022/08/23 01:44:50;;;;;;;7.53;2.20;;;21.90;81.50;;;;;;5149730;27;45484;-73
2022/08/23 01:47:17;;;;;;;5.00;1.98;;;22.00;81.40;;;;;;5145221;27;47373;-72
2022/08/23 01:49:43;;;;;;;5.60;2.22;;;22.00;81.50;;;;;;5145226;27;45926;-72
2022/08/23 01:52:10;;;;;;;5.13;1.95;;;21.90;81.40;;;;;;5156455;27;45242;-72
2022/08/23 01:54:38;;;;;;;4.22;1.85;;;21.90;82.20;;;;;;5153342;27;45526;-72
2022/08/23 01:57:06;;;;;;;5.05;2.13;;;21.80;82.60;;;;;;5151491;27;47991;-73
2022/08/23 01:59:34;;;;;;;7.72;1.85;;;21.70;83.00;;;;;;5139917;27;45448;-72
2022/08/23 02:02:01;;;;;;;5.60;1.92;;;21.70;82.80;;;;;;5147590;27;45375;-72
2022/08/23 02:04:28;;;;;;;4.07;2.00;;;21.60;83.10;;;;;;5148104;27;45600;-72
2022/08/23 02:06:55;;;;;;;5.65;1.90;;;21.60;83.10;;;;;;5142776;27;48300;-72
2022/08/23 02:09:22;;;;;;;2.53;1.40;;;21.60;85.20;;;;;;5135771;27;45469;-72
2022/08/23 02:11:49;;;;;;;5.47;2.10;;;21.60;83.50;;;;;;5158492;27;45365;-72
2022/08/23 02:14:18;;;;;;;5.20;1.90;;;21.60;83.60;;;;;;5147761;27;45429;-72
2022/08/23 02:16:48;;;;;;;4.75;1.63;;;21.80;84.50;;;;;;5137311;27;46308;-73
2022/08/23 02:19:16;;;;;;;4.60;1.80;;;22.00;83.60;;;;;;5139139;27;46086;-72
2022/08/23 02:21:45;;;;;;;5.50;1.98;;;22.20;83.00;;;;;;5158823;27;45227;-72
2022/08/23 02:24:14;;;;;;;2.83;1.77;;;22.20;82.80;;;;;;5162023;27;45539;-72
2022/08/23 02:26:43;;;;;;;8.10;1.88;;;22.20;82.20;;;;;;5148367;27;48674;-72
2022/08/23 02:29:10;;;;;;;5.05;1.92;;;22.20;82.20;;;;;;5153287;27;45351;-72
2022/08/23 02:31:36;;;;;;;7.07;2.05;;;22.30;81.70;;;;;;5141501;27;45289;-72
2022/08/23 02:34:05;;;;;;;5.28;2.00;;;22.20;81.70;;;;;;5144979;27;45422;-74
2022/08/23 02:36:32;;;;;;;5.38;1.90;;;22.20;81.70;;;;;;5147805;27;47599;-73
2022/08/23 02:38:59;;;;;;;4.53;1.70;;;22.10;82.20;;;;;;5161980;27;45505;-72
2022/08/23 02:41:26;;;;;;;3.08;1.80;;;22.10;82.60;;;;;;5158877;27;45583;-72
2022/08/23 02:43:53;;;;;;;6.90;1.77;;;22.10;82.20;;;;;;5158021;27;45479;-72
2022/08/23 02:46:22;;;;;;;6.93;1.85;;;22.10;82.60;;;;;;5140476;27;46877;-73
2022/08/23 02:48:49;;;;;;;8.27;2.28;;;22.10;82.00;;;;;;5152161;27;45279;-72
2022/08/23 02:51:18;;;;;;;4.88;1.92;;;22.00;82.40;;;;;;5156267;27;45366;-72
2022/08/23 02:53:45;;;;;;;7.20;1.80;;;22.10;82.50;;;;;;5149823;27;45342;-73
2022/08/23 02:56:13;;;;;;;4.13;1.70;;;22.00;81.90;;;;;;5149455;27;46101;-74
2022/08/23 02:58:40;;;;;;;4.53;2.00;;;22.00;82.20;;;;;;5147276;27;45266;-73
2022/08/23 03:01:15;;;;;;;4.68;1.90;;;22.00;82.80;;;;;;5146446;27;45439;-72
2022/08/23 03:03:42;;;;;;;5.80;2.25;;;22.00;82.80;;;;;;5147716;27;45431;-72
2022/08/23 03:06:08;;;;;;;4.60;1.60;;;22.00;82.80;;;;;;5153650;27;48405;-73
2022/08/23 03:08:36;;;;;;;5.25;1.95;;;22.00;82.80;;;;;;5135222;27;45750;-72
2022/08/23 03:11:11;;;;;;;6.32;1.98;;;22.00;82.80;;;;;;5139322;27;45420;-72
2022/08/23 03:13:38;;;;;;;5.72;2.22;;;22.00;82.00;;;;;;5129446;27;45432;-72
2022/08/23 03:16:07;;;;;;;5.47;1.75;;;22.00;82.30;;;;;;5138687;27;45454;-72
2022/08/23 03:18:34;;;;;;;3.85;1.70;;;22.00;82.30;;;;;;5150743;27;45375;-72
2022/08/23 03:21:00;;;;;;;4.53;1.90;;;22.00;82.10;;;;;;5138636;27;45413;-72
2022/08/23 03:23:28;;;;;;;4.20;1.95;;;22.00;82.80;;;;;;5146135;27;45192;-72
2022/08/23 03:25:56;;;;;;;4.70;1.52;;;22.00;82.40;;;;;;5143579;27;47915;-72
2022/08/23 03:28:23;;;;;;;5.13;2.17;;;22.00;82.80;;;;;;5162246;27;45461;-73
2022/08/23 03:30:50;;;;;;;11.77;2.40;;;21.90;79.90;;;;;;5142992;27;45417;-73
2022/08/23 03:33:17;;;;;;;6.03;1.92;;;21.90;80.10;;;;;;5155262;27;45204;-73
2022/08/23 03:35:44;;;;;;;5.53;2.40;;;21.60;80.10;;;;;;5148606;27;46163;-72
2022/08/23 03:38:11;;;;;;;5.03;1.77;;;21.60;81.00;;;;;;5152962;27;45536;-72
2022/08/23 03:40:38;;;;;;;11.75;2.65;;;21.60;80.70;;;;;;5148332;27;45535;-74
2022/08/23 03:43:07;;;;;;;6.05;2.03;;;21.50;81.30;;;;;;5142562;27;45513;-73
2022/08/23 03:45:33;;;;;;;7.35;2.45;;;21.50;83.50;;;;;;5138635;27;46580;-73
2022/08/23 03:48:01;;;;;;;5.15;2.15;;;21.60;82.80;;;;;;5142396;27;45470;-74
2022/08/23 03:50:28;;;;;;;9.00;2.28;;;21.70;83.30;;;;;;5150195;27;45375;-73
2022/08/23 03:52:55;;;;;;;6.78;2.38;;;21.80;82.70;;;;;;5138171;27;45466;-72
2022/08/23 03:55:21;;;;;;;3.55;1.90;;;21.80;82.60;;;;;;5135396;27;45380;-73
2022/08/23 03:57:48;;;;;;;10.85;2.78;;;21.80;82.40;;;;;;5133417;27;45416;-72
2022/08/23 04:00:17;;;;;;;14.40;3.17;;;21.80;82.70;;;;;;5133367;27;45412;-73
2022/08/23 04:02:44;;;;;;;12.65;3.03;;;21.10;83.10;;;;;;5125980;27;45513;-73
2022/08/23 04:05:11;;;;;;;14.55;3.38;;;20.40;86.40;;;;;;5132974;27;47803;-72
2022/08/23 04:07:38;;;;;;;15.73;3.17;;;20.20;88.50;;;;;;5145136;27;45585;-72
2022/08/23 04:10:08;;;;;;;7.97;3.22;;;20.10;89.80;;;;;;5136900;27;45203;-72
2022/08/23 04:12:35;;;;;;;15.20;2.95;;;20.10;89.80;;;;;;5135243;27;45382;-72
2022/08/23 04:15:02;;;;;;;8.85;2.80;;;20.10;89.90;;;;;;5136893;27;46610;-72
2022/08/23 04:17:31;;;;;;;9.88;2.97;;;20.10;90.10;;;;;;5136020;27;45299;-72
2022/08/23 04:19:58;;;;;;;7.05;2.67;;;20.10;90.20;;;;;;5124952;27;45308;-72
2022/08/23 04:22:25;;;;;;;7.13;2.67;;;20.10;90.20;;;;;;5137131;27;45624;-72
2022/08/23 04:24:51;;;;;;;7.45;2.72;;;20.10;90.50;;;;;;5148445;27;47500;-73
2022/08/23 04:27:18;;;;;;;13.50;3.17;;;20.40;90.00;;;;;;5135610;27;46135;-73
2022/08/23 04:29:45;;;;;;;6.18;3.00;;;20.50;89.90;;;;;;5145685;27;45367;-72
2022/08/23 04:32:13;;;;;;;7.03;2.90;;;20.50;89.60;;;;;;5155534;27;45512;-73
2022/08/23 04:34:42;;;;;;;9.13;2.67;;;20.50;89.50;;;;;;5141513;27;45532;-72
2022/08/23 04:37:09;;;;;;;8.82;2.45;;;20.60;89.60;;;;;;5141797;27;45427;-72
2022/08/23 04:42:16;;;;;;;5.85;2.47;;;20.60;89.60;;;;;;5148670;27;45234;-73
2022/08/23 04:42:23;;;;;;;10.00;2.75;;;20.70;89.10;;;;;;5145047;27;45448;-73
2022/08/23 04:44:51;;;;;;;5.97;2.40;;;20.70;88.80;;;;;;5147688;27;45380;-72
2022/08/23 04:47:18;;;;;;;7.45;2.60;;;20.70;89.20;;;;;;5150896;27;45567;-72
2022/08/23 04:49:46;;;;;;;9.95;2.83;;;20.60;89.70;;;;;;5137191;27;45344;-72
2022/08/23 04:52:13;;;;;;;4.82;2.58;;;20.60;89.40;;;;;;5155881;27;45242;-72
2022/08/23 04:54:40;;;;;;;7.13;3.30;;;20.60;89.40;;;;;;5140337;27;47691;-73
2022/08/23 04:57:07;;;;;;;5.57;2.55;;;20.70;89.30;;;;;;5142560;27;46052;-72
2022/08/23 04:59:34;;;;;;;8.15;2.30;;;20.70;89.30;;;;;;5159640;27;45308;-72
2022/08/23 05:02:01;;;;;;;4.60;2.58;;;20.70;88.60;;;;;;5137206;27;45338;-73
2022/08/23 05:04:28;;;;;;;6.05;2.63;;;20.60;89.20;;;;;;5129651;27;47458;-72
2022/08/23 05:06:56;;;;;;;7.60;2.90;;;20.70;89.30;;;;;;5135542;27;45448;-73
2022/08/23 05:09:23;;;;;;;7.07;2.60;;;20.90;88.40;;;;;;5155693;27;45369;-72
2022/08/23 05:11:50;;;;;;;8.30;2.65;;;21.00;87.10;;;;;;5139646;27;45279;-73
2022/08/23 05:14:17;;;;;;;8.60;2.60;;;20.90;87.50;;;;;;5137539;27;45520;-72
2022/08/23 05:16:44;;;;;;;5.43;2.72;;;20.90;87.60;;;;;;5141405;27;46287;-72
2022/08/23 05:19:12;;;;;;;7.28;2.90;;;21.00;87.60;;;;;;5131800;27;45376;-74
2022/08/23 05:21:39;;;;;;;8.43;3.30;;;21.10;87.10;;;;;;5127886;27;45437;-72
2022/08/23 05:24:07;;;;;;;6.25;3.35;;;21.00;86.20;;;;;;5133693;27;47084;-72
2022/08/23 05:26:34;;;;;;;9.30;4.15;;;20.80;87.00;;;;;;5137649;27;45361;-73
2022/08/23 05:29:00;;;;;;;9.95;3.30;;;19.70;90.50;;;;;;5134804;27;45465;-72
2022/08/23 05:31:29;;;;;;;12.45;3.30;;;19.90;91.30;;;;;;5138395;27;45337;-72
2022/08/23 05:33:56;;;;;;;8.80;3.15;;;20.40;90.00;;;;;;5154302;27;45548;-72
2022/08/23 05:36:22;;;;;;;7.68;3.22;;;20.70;88.80;;;;;;5146920;27;46187;-72
2022/08/23 05:38:51;;;;;;;9.98;3.10;;;20.80;87.60;;;;;;5131929;27;45366;-74
2022/08/23 05:41:19;;;;;;;11.13;4.10;;;20.80;87.80;;;;;;5147704;27;45482;-72
2022/08/23 05:43:47;;;;;;;15.43;4.28;;;20.70;87.70;;;;;;5139570;27;47251;-72
2022/08/23 05:46:15;;;;;;;10.13;3.80;;;20.60;88.70;;;;;;5138625;27;45370;-72
2022/08/23 05:48:45;;;;;;;7.95;3.20;;;20.50;88.70;;;;;;5151958;27;45277;-71
2022/08/23 05:51:14;;;;;;;7.10;3.45;;;20.50;88.20;;;;;;5147700;27;45379;-71
2022/08/23 05:53:42;;;;;;;10.52;3.83;;;20.60;87.50;;;;;;5158847;27;47708;-71
2022/08/23 05:56:15;;;;;;;11.68;4.22;;;20.50;88.30;;;;;;5149264;27;45419;-71
2022/08/23 05:58:43;;;;;;;14.30;3.88;;;20.50;88.40;;;;;;5155794;27;45394;-73
2022/08/23 06:01:11;;;;;;;9.60;4.32;;;20.50;88.80;;;;;;5150206;27;45404;-72
2022/08/23 06:03:38;;;;;;;11.85;4.07;;;20.40;89.60;;;;;;5136450;27;46554;-72
2022/08/23 06:06:05;;;;;;;14.82;3.92;;;20.30;89.70;;;;;;5145318;27;45668;-72
2022/08/23 06:08:32;;;;;;;14.88;4.32;;;20.40;89.40;;;;;;5135939;27;45413;-73
2022/08/23 06:11:01;;;;;;;12.45;3.72;;;20.30;90.10;;;;;;5154883;27;45398;-72
2022/08/23 06:13:28;;;;;;;10.82;3.97;;;20.30;89.80;;;;;;5138188;27;45283;-73
2022/08/23 06:15:56;;;;;;;11.63;3.70;;;20.30;89.90;;;;;;5139388;27;45450;-73
2022/08/23 06:18:23;;;;;;;15.05;4.03;;;20.50;89.70;;;;;;5153798;27;45357;-72
2022/08/23 06:21:00;;;;;;;17.05;3.80;;;20.50;89.50;;;;;;5133430;27;45637;-72
2022/08/23 06:23:28;;;;;;;13.95;4.20;;;20.40;89.80;;;;;;5145499;27;45665;-72
2022/08/23 06:25:55;;;;;;;20.50;4.03;;;20.50;89.40;;;;;;5152496;27;45440;-72
2022/08/23 06:28:22;;;;;;;12.63;4.57;;;20.50;89.10;;;;;;5157555;27;45392;-73
2022/08/23 06:30:49;;;;;;;12.23;4.15;;;20.50;89.70;;;;;;5153980;27;45326;-73
2022/08/23 06:33:17;;;;;;;10.77;3.88;;;20.40;90.10;;;;;;5144496;27;46300;-72
2022/08/23 06:35:44;;;;;;;11.98;3.95;;;20.40;90.40;;;;;;5135400;27;45395;-72
2022/08/23 06:38:11;;;;;;;18.13;4.15;;;20.50;90.40;;;;;;5140451;27;45383;-73
2022/08/23 06:40:38;;;;;;;10.05;4.15;;;20.50;90.40;;;;;;5135317;27;45536;-73
2022/08/23 06:43:05;;;;;;;20.27;4.47;;;20.70;90.00;;;;;;5131684;27;45355;-72
2022/08/23 06:45:32;;;;;;;10.65;3.88;;;20.70;89.40;;;;;;5136777;27;45358;-72
2022/08/23 06:47:59;;;;;;;6.93;3.15;;;20.70;90.60;;;;;;5127694;27;45381;-72
2022/08/23 06:50:27;;;;;;;8.82;4.05;;;21.20;90.00;;;;;;5132668;27;45470;-72
2022/08/23 06:52:54;;;;;;;12.45;3.65;;;21.60;87.00;;;;;;5130709;27;48466;-73
2022/08/23 06:55:21;;;;;;;23.60;4.30;;;21.80;86.00;;;;;;5141219;27;45390;-72
2022/08/23 06:57:48;;;;;;;11.75;3.00;;;21.90;86.00;;;;;;5133012;27;45491;-72
2022/08/23 07:00:15;;;;;;;7.10;3.65;;;21.90;85.70;;;;;;5127146;27;45410;-73
2022/08/23 07:02:42;;;;;;;10.65;3.70;;;22.00;86.00;;;;;;5142480;27;47538;-73
2022/08/23 07:05:09;;;;;;;9.40;3.22;;;22.00;84.60;;;;;;5152326;27;45261;-73
2022/08/23 07:07:37;;;;;;;9.40;3.20;;;22.10;84.40;;;;;;5133650;27;45554;-73
2022/08/23 07:10:05;;;;;;;10.45;3.38;;;22.10;84.20;;;;;;5151381;27;45345;-73
2022/08/23 07:12:32;;;;;;;13.52;3.45;;;22.10;84.00;;;;;;5141869;27;47399;-73
2022/08/23 07:14:59;;;;;;;12.48;3.20;;;22.10;83.90;;;;;;5133038;27;45331;-73
2022/08/23 07:17:26;;;;;;;12.43;3.38;;;22.20;83.70;;;;;;5131859;27;45355;-73
2022/08/23 07:19:53;;;;;;;10.48;3.25;;;22.30;84.80;;;;;;5141977;27;45642;-73
2022/08/23 07:22:20;;;;;;;6.45;2.70;;;22.40;84.90;;;;;;5140931;27;47664;-72
2022/08/23 07:24:48;;;;;;;8.25;3.35;;;22.60;83.90;;;;;;5136371;27;45327;-72
2022/08/23 07:27:15;;;;;;;8.90;3.20;;;22.80;84.50;;;;;;5159574;27;45257;-73
2022/08/23 07:29:41;;;;;;;7.10;2.85;;;22.90;83.50;;;;;;5151584;27;45461;-72
2022/08/23 07:32:09;;;;;;;7.93;2.70;;;23.00;85.10;;;;;;5142117;27;47924;-73
2022/08/23 07:34:36;;;;;;;8.63;3.22;;;23.00;82.30;;;;;;5135960;27;45550;-72
2022/08/23 07:37:03;;;;;;;10.77;2.70;;;23.20;82.60;;;;;;5137655;27;45440;-73
2022/08/23 07:39:31;;;;;;;6.30;2.65;;;23.20;81.00;;;;;;5151291;27;45441;-73
2022/08/23 07:42:00;;;;;;;6.00;2.35;;;23.30;81.40;;;;;;5146849;27;45497;-73
2022/08/23 07:44:27;;;;;;;8.65;2.65;;;23.30;81.80;;;;;;5137170;27;45563;-74
2022/08/23 07:46:54;;;;;;;2.67;1.90;;;23.40;81.20;;;;;;5141125;27;45289;-73
2022/08/23 07:49:21;;;;;;;3.35;1.80;;;23.40;81.20;;;;;;5141912;27;45602;-72
2022/08/23 07:51:50;;;;;;;6.43;2.70;;;23.40;81.20;;;;;;5143006;27;45975;-72
2022/08/23 07:54:20;;;;;;;6.63;3.33;;;23.40;83.40;;;;;;5136066;27;45501;-73
2022/08/23 07:56:47;;;;;;;10.15;3.42;;;23.40;84.40;;;;;;5143458;27;45327;-72
2022/08/23 07:59:15;;;;;;;7.90;3.42;;;23.40;86.60;;;;;;5144277;27;45390;-72
2022/08/23 08:01:43;;;;;;;11.43;3.65;;;23.30;84.20;;;;;;5136398;27;48071;-73
2022/08/23 08:04:11;;;;;;;5.57;2.53;;;23.20;81.90;;;;;;5131911;27;45327;-72
2022/08/23 08:06:41;;;;;;;9.57;3.55;;;23.20;83.30;;;;;;5140264;27;45575;-72
2022/08/23 08:09:08;;;;;;;7.97;2.83;;;23.30;84.20;;;;;;5152750;27;45673;-73
2022/08/23 08:11:35;;;;;;;8.15;2.63;;;23.30;85.00;;;;;;5138083;27;46598;-73
2022/08/23 08:14:04;;;;;;;9.23;2.75;;;23.30;84.90;;;;;;5142976;27;45489;-72
2022/08/23 08:16:34;;;;;;;8.10;2.70;;;23.20;81.00;;;;;;5148634;27;45350;-72
2022/08/23 08:19:03;;;;;;;9.85;2.65;;;23.20;82.30;;;;;;5139992;27;45348;-73
2022/08/23 08:21:30;;;;;;;9.65;2.90;;;23.20;81.00;;;;;;5138938;27;48459;-73
2022/08/23 08:23:58;;;;;;;7.03;2.65;;;23.10;80.50;;;;;;5134314;27;45311;-71
2022/08/23 08:26:26;;;;;;;6.00;2.40;;;23.10;80.90;;;;;;5139305;27;45364;-73
2022/08/23 08:28:54;;;;;;;7.53;2.50;;;23.10;82.20;;;;;;5156697;27;45441;-73
2022/08/23 08:31:21;;;;;;;8.77;2.92;;;23.10;80.50;;;;;;5157844;27;45543;-72
2022/08/23 08:33:50;;;;;;;7.20;2.75;;;23.10;79.50;;;;;;5149648;27;45881;-73
2022/08/23 08:36:35;;;;;;;13.55;2.70;;;23.10;80.70;;;;;;5151251;27;45323;-72
2022/08/23 08:39:02;;;;;;;8.25;2.50;;;23.10;80.40;;;;;;5152726;27;45448;-73
2022/08/23 08:41:43;;;;;;;9.95;2.92;;;23.10;80.40;;;;;;5151567;27;46264;-73
2022/08/23 08:44:22;;;;;;;6.05;2.40;;;23.10;80.90;;;;;;5142272;27;45395;-73
2022/08/23 08:46:53;;;;;;;7.13;2.20;;;23.10;79.10;;;;;;5154838;27;45328;-73
2022/08/23 08:49:32;;;;;;;6.40;2.33;;;23.10;77.90;;;;;;5147442;27;45462;-73
2022/08/23 08:52:06;;;;;;;7.18;2.47;;;23.20;77.30;;;;;;5129014;27;46055;-73
2022/08/23 08:54:33;;;;;;;7.03;2.40;;;23.10;77.60;;;;;;5142844;27;45304;-73
2022/08/23 08:57:01;;;;;;;6.85;2.17;;;23.10;77.10;;;;;;5157126;27;45419;-73
2022/08/23 08:59:36;;;;;;;9.75;2.60;;;23.20;77.40;;;;;;5148145;27;45322;-73
2022/08/23 09:02:04;;;;;;;4.43;1.92;;;23.20;77.80;;;;;;5152401;27;47263;-73
2022/08/23 09:04:33;;;;;;;9.27;2.90;;;23.20;78.00;;;;;;5151741;27;46007;-73
2022/08/23 09:07:06;;;;;;;8.02;2.35;;;23.20;76.80;;;;;;5132610;27;45505;-72
2022/08/23 09:10:05;;;;;;;9.02;2.22;;;23.20;77.80;;;;;;5147677;27;45351;-73
2022/08/23 09:12:40;;;;;;;7.63;2.00;;;23.20;77.90;;;;;;5134990;27;47384;-74
2022/08/23 09:15:19;;;;;;;7.75;2.13;;;23.30;80.10;;;;;;5141605;27;45400;-73
2022/08/23 09:17:51;;;;;;;5.88;2.42;;;23.30;76.40;;;;;;5147768;27;45219;-72
2022/08/23 09:20:21;;;;;;;11.00;2.25;;;23.30;79.30;;;;;;5159317;27;45449;-73
2022/08/23 09:22:52;;;;;;;8.98;2.58;;;23.30;74.20;;;;;;5144303;27;46359;-72
2022/08/23 09:25:20;;;;;;;7.38;2.50;;;23.30;76.20;;;;;;5153677;27;46017;-73
2022/08/23 09:27:47;;;;;;;11.35;3.35;;;23.30;74.50;;;;;;5136902;27;45359;-73
2022/08/23 09:30:16;;;;;;;6.03;2.22;;;23.40;77.10;;;;;;5133154;27;45380;-73
2022/08/23 09:32:44;;;;;;;8.98;2.22;;;23.30;77.50;;;;;;5137412;27;48520;-73
2022/08/23 09:35:14;;;;;;;4.43;2.15;;;23.30;77.40;;;;;;5136903;27;45725;-74
2022/08/23 09:38:04;;;;;;;5.78;1.88;;;23.30;78.00;;;;;;5149424;27;45385;-73
2022/08/23 09:40:36;;;;;;;4.85;1.67;;;23.30;77.70;;;;;;5146618;27;45224;-73
2022/08/23 09:43:08;;;;;;;8.52;2.40;;;23.30;80.80;;;;;;5143240;27;45338;-73
2022/08/23 09:45:37;;;;;;;7.15;2.35;;;23.30;80.20;;;;;;5161154;27;45712;-73
2022/08/23 09:48:05;;;;;;;8.90;2.42;;;23.30;78.40;;;;;;5152940;27;45353;-73
2022/08/23 09:50:37;;;;;;;5.05;2.00;;;23.40;76.20;;;;;;5150439;27;45389;-73
2022/08/23 09:53:09;;;;;;;12.55;2.50;;;23.40;78.70;;;;;;5135667;27;45499;-73
2022/08/23 09:55:40;;;;;;;3.35;1.63;;;23.40;75.90;;;;;;5133043;27;45683;-73
2022/08/23 09:58:26;;;;;;;8.07;1.90;;;23.40;77.70;;;;;;5154420;27;45219;-73
2022/08/23 10:01:07;;;;;;;10.65;2.55;;;23.50;74.80;;;;;;5153325;27;45532;-73
2022/08/23 10:03:34;;;;;;;7.82;2.05;;;23.50;71.20;;;;;;5136366;27;46291;-73
2022/08/23 10:06:02;;;;;;;9.07;2.30;;;23.60;71.40;;;;;;5137915;27;45503;-74
2022/08/23 10:08:32;;;;;;;10.02;2.28;;;23.50;72.50;;;;;;5137077;27;45292;-74
2022/08/23 10:11:05;;;;;;;6.22;1.90;;;23.60;73.80;;;;;;5145237;27;45575;-73
2022/08/23 10:13:32;;;;;;;6.13;1.85;;;23.60;74.40;;;;;;5145818;27;46613;-73
2022/08/23 10:16:09;;;;;;;9.93;1.95;;;23.60;73.80;;;;;;5138946;27;45298;-73
2022/08/23 10:18:50;;;;;;;5.57;1.58;;;23.50;76.40;;;;;;5147691;27;45436;-73
2022/08/23 10:21:23;;;;;;;3.28;1.63;;;23.50;76.10;;;;;;5150028;27;45479;-72
2022/08/23 10:24:07;;;;;;;6.43;2.00;;;23.50;78.20;;;;;;5141426;27;45513;-73
2022/08/23 10:26:39;;;;;;;7.70;2.40;;;23.50;73.80;;;;;;5136898;27;45707;-74
2022/08/23 10:32:08;;;;;;;5.72;1.70;;;23.70;71.30;;;;;;5130780;27;45443;-73
2022/08/23 10:34:47;;;;;;;4.95;1.60;;;23.70;72.50;;;;;;5129287;27;46517;-73
2022/08/23 10:37:32;;;;;;;7.93;1.83;;;23.70;74.00;;;;;;5142378;27;45401;-73
2022/08/23 10:40:06;;;;;;;6.93;1.88;;;23.60;73.10;;;;;;5133118;27;45530;-73
2022/08/23 10:42:39;;;;;;;6.80;1.90;;;23.60;71.90;;;;;;5134863;27;45483;-73
2022/08/23 10:45:16;;;;;;;10.55;1.70;;;23.60;73.20;;;;;;5136820;27;48060;-73
2022/08/23 10:47:58;;;;;;;12.95;3.42;;;23.60;72.70;;;;;;5147197;27;45286;-73
2022/08/23 10:50:27;;;;;;;6.95;3.03;;;23.70;69.90;;;;;;5134635;27;45440;-72
2022/08/23 10:52:57;;;;;;;7.70;3.80;;;23.80;68.80;;;;;;5141162;27;45422;-73
2022/08/23 10:55:43;;;;;;;12.40;6.00;;;23.80;68.20;;;;;;5149299;27;48589;-73
2022/08/23 10:58:15;;;;;;;11.13;5.22;;;23.70;74.40;;;;;;5132130;27;45442;-73
2022/08/23 11:00:42;;;;;;;9.00;4.72;;;23.70;73.80;;;;;;5132700;27;45595;-73
2022/08/23 11:03:18;;;;;;;11.65;4.35;;;23.70;74.70;;;;;;5135935;27;45551;-73
2022/08/23 11:06:32;;;;;;;13.32;3.85;;;23.70;73.30;;;;;;5153537;27;47663;-73
2022/08/23 11:09:01;;;;;;;11.18;2.38;;;23.80;68.30;;;;;;5138414;27;45381;-72
2022/08/23 11:11:40;;;;;;;8.38;4.18;;;23.70;67.90;;;;;;5141751;27;45463;-73
2022/08/23 11:14:09;;;;;;;9.25;5.32;;;23.70;74.30;;;;;;5136364;27;45570;-72
2022/08/23 11:16:39;;;;;;;8.00;4.93;;;23.70;75.90;;;;;;5155020;27;48718;-73
2022/08/23 11:19:12;;;;;;;9.50;4.85;;;23.70;76.20;;;;;;5146236;27;45407;-73
2022/08/23 11:21:47;;;;;;;9.50;4.50;;;23.60;75.90;;;;;;5142548;27;45305;-73
2022/08/23 11:24:50;;;;;;;11.30;5.40;;;23.60;73.00;;;;;;5155562;27;45207;-73
2022/08/23 11:27:30;;;;;;;6.85;2.70;;;23.80;74.50;;;;;;5153109;27;48257;-73
2022/08/23 11:29:57;;;;;;;12.63;4.45;;;23.90;69.50;;;;;;5157985;27;45387;-73
2022/08/23 11:32:33;;;;;;;5.35;2.10;;;23.90;69.60;;;;;;5138001;27;45422;-73
2022/08/23 11:35:09;;;;;;;6.30;3.63;;;23.90;69.80;;;;;;5143807;27;45455;-74
2022/08/23 11:37:55;;;;;;;9.88;3.75;;;23.90;70.80;;;;;;5130164;27;47958;-73
2022/08/23 11:40:55;;;;;;;13.40;5.32;;;23.90;71.00;;;;;;5128335;27;45406;-73
2022/08/23 11:43:27;;;;;;;6.22;2.58;;;23.90;71.70;;;;;;5138577;27;45401;-73
2022/08/23 11:46:12;;;;;;;5.45;2.85;;;23.90;69.20;;;;;;5154309;27;45394;-74
2022/08/23 11:48:42;;;;;;;9.80;5.15;;;23.90;71.40;;;;;;5140903;27;45388;-73
2022/08/23 11:51:21;;;;;;;11.32;3.58;;;23.90;73.10;;;;;;5141733;27;45415;-73
2022/08/23 11:54:08;;;;;;;5.78;2.92;;;24.00;71.80;;;;;;5145384;27;45280;-73
2022/08/23 11:56:48;;;;;;;9.48;3.13;;;24.00;69.70;;;;;;5141285;27;45254;-73
2022/08/23 11:59:34;;;;;;;8.18;4.18;;;23.90;70.80;;;;;;5133548;27;46500;-73
2022/08/23 12:02:34;;;;;;;7.45;3.20;;;23.80;72.60;;;;;;5133997;27;45376;-74
2022/08/23 12:05:06;;;;;;;7.47;4.00;;;23.90;71.00;;;;;;5123123;27;45339;-74
2022/08/23 12:07:50;;;;;;;10.00;5.13;;;23.80;72.60;;;;;;5139897;27;45189;-73
2022/08/23 12:10:24;;;;;;;6.10;3.15;;;23.90;70.90;;;;;;5124153;27;45272;-74
2022/08/23 12:13:24;;;;;;;6.07;3.33;;;23.80;73.80;;;;;;5124134;27;45976;-74
2022/08/23 12:16:10;;;;;;;8.95;4.30;;;23.80;75.00;;;;;;5124671;27;45295;-73
2022/08/23 12:18:43;;;;;;;7.00;3.92;;;23.80;72.70;;;;;;5124348;27;45394;-73
2022/08/23 12:21:17;;;;;;;8.52;3.97;;;23.80;74.70;;;;;;5123755;27;48430;-73
2022/08/23 12:23:46;;;;;;;11.60;5.10;;;23.70;75.70;;;;;;5124947;27;45325;-74
2022/08/23 12:26:24;;;;;;;8.98;4.82;;;23.70;76.20;;;;;;5123718;27;45243;-75
2022/08/23 12:28:57;;;;;;;9.05;4.97;;;23.70;77.50;;;;;;5124268;27;45548;-73
2022/08/23 12:31:33;;;;;;;8.70;3.78;;;23.70;75.90;;;;;;5123769;27;46589;-74
2022/08/23 12:34:15;;;;;;;6.85;3.65;;;23.80;73.50;;;;;;5140180;27;45598;-74
2022/08/23 12:36:53;;;;;;;8.95;3.97;;;23.80;73.70;;;;;;5145195;27;45306;-73
2022/08/23 12:39:25;;;;;;;10.30;4.60;;;23.90;73.00;;;;;;5145014;27;45622;-73
2022/08/23 12:41:58;;;;;;;6.10;3.92;;;23.80;73.30;;;;;;5126552;27;46540;-73
2022/08/23 12:44:27;;;;;;;7.20;4.10;;;23.80;74.70;;;;;;5122303;27;45346;-73
2022/08/23 12:46:55;;;;;;;7.40;4.90;;;23.80;75.50;;;;;;5125228;27;45333;-73
2022/08/23 12:49:29;;;;;;;7.60;4.55;;;23.80;76.10;;;;;;5140929;27;45266;-75
2022/08/23 12:51:58;;;;;;;10.27;4.75;;;23.70;77.00;;;;;;5122057;27;46072;-73
2022/08/23 12:54:34;;;;;;;7.32;4.13;;;23.80;75.90;;;;;;5123394;27;45627;-74
2022/08/23 12:57:10;;;;;;;4.97;2.80;;;23.80;75.10;;;;;;5127314;27;45295;-74
2022/08/23 12:59:46;;;;;;;5.78;2.53;;;23.90;72.10;;;;;;5144965;27;45388;-74
2022/08/23 13:02:20;;;;;;;9.25;4.40;;;23.80;73.10;;;;;;5122215;27;46300;-73
2022/08/23 13:04:47;;;;;;;6.47;3.80;;;23.80;74.60;;;;;;5131044;27;45660;-73
2022/08/23 13:07:19;;;;;;;6.40;2.85;;;23.90;72.90;;;;;;5123570;27;45435;-74
2022/08/23 13:09:46;;;;;;;7.03;3.20;;;23.90;71.50;;;;;;5123660;27;45264;-74
2022/08/23 13:12:17;;;;;;;6.45;3.67;;;23.90;73.80;;;;;;5137074;27;47965;-74